createdAt,value
2019-03-05T00:02:06.839Z,6.33
2019-03-05T00:07:13.756Z,7.30
2019-03-05T00:12:20.755Z,9.37
2019-03-05T00:17:27.865Z,3.90
2019-03-05T00:22:34.785Z,5.33
2019-03-05T00:27:44.953Z,9.07
2019-03-05T00:32:56.102Z,4.57
2019-03-05T00:38:11.046Z,5.10
2019-03-05T00:43:49.507Z,9.27
2019-03-05T00:49:31.326Z,5.63
2019-03-05T00:55:21.692Z,4.90
2019-03-05T01:00:37.597Z,7.57
2019-03-05T01:06:21.727Z,4.07
2019-03-05T01:11:30.387Z,8.23
2019-03-05T01:16:37.428Z,3.73
2019-03-05T01:21:44.670Z,8.60
2019-03-05T01:26:51.653Z,6.17
2019-03-05T01:32:11.843Z,4.17
2019-03-05T01:37:19.803Z,6.27
2019-03-05T01:42:26.883Z,4.93
2019-03-05T01:47:33.807Z,6.70
2019-03-05T01:52:40.792Z,6.70
2019-03-05T01:57:47.748Z,4.53
2019-03-05T02:02:54.805Z,4.60
2019-03-05T02:08:01.885Z,4.60
2019-03-05T02:13:09.945Z,4.10
2019-03-05T02:18:20.893Z,4.53
2019-03-05T02:23:32.691Z,3.80
2019-03-05T02:29:03.041Z,3.93
2019-03-05T02:34:43.841Z,6.10
2019-03-05T02:40:20.355Z,4.13
2019-03-05T02:46:04.537Z,4.87
2019-03-05T02:51:28.932Z,4.50
2019-03-05T02:56:58.131Z,3.87
2019-03-05T03:02:28.231Z,4.90
2019-03-05T03:07:35.148Z,3.93
2019-03-05T03:12:42.691Z,3.47
2019-03-05T03:17:50.487Z,3.87
2019-03-05T03:22:57.482Z,3.20
2019-03-05T03:28:04.738Z,4.57
2019-03-05T03:33:11.757Z,3.47
2019-03-05T03:38:18.697Z,3.27
2019-03-05T03:43:25.714Z,4.27
2019-03-05T03:48:32.644Z,5.63
2019-03-05T03:53:39.566Z,4.70
2019-03-05T03:58:46.864Z,4.83
2019-03-05T04:03:53.814Z,6.33
2019-03-05T04:09:00.895Z,4.53
2019-03-05T04:14:09.755Z,5.27
2019-03-05T04:19:21.203Z,6.30
2019-03-05T04:24:28.153Z,5.17
2019-03-05T04:29:35.411Z,4.53
2019-03-05T04:34:42.391Z,7.93
2019-03-05T04:39:49.294Z,7.00
2019-03-05T04:45:01.433Z,4.00
2019-03-05T04:50:23.954Z,4.37
2019-03-05T04:55:30.884Z,5.33
2019-03-05T05:00:37.859Z,4.37
2019-03-05T05:05:45.241Z,1.83
2019-03-05T05:10:52.168Z,3.77
2019-03-05T05:15:59.136Z,4.93
2019-03-05T05:21:06.051Z,3.20
2019-03-05T05:26:13.154Z,6.80
2019-03-05T05:31:20.169Z,6.57
2019-03-05T05:36:27.073Z,6.43
2019-03-05T05:41:33.982Z,5.03
2019-03-05T05:46:40.926Z,3.00
2019-03-05T05:51:47.821Z,4.10
2019-03-05T05:56:54.750Z,5.47
2019-03-05T06:02:01.734Z,5.93
2019-03-05T06:07:08.641Z,2.43
2019-03-05T06:12:16.712Z,2.67
2019-03-05T06:17:23.788Z,3.30
2019-03-05T06:22:30.698Z,4.30
2019-03-05T06:27:37.702Z,2.60
2019-03-05T06:32:44.698Z,4.80
2019-03-05T06:37:51.793Z,2.80
2019-03-05T06:42:58.813Z,2.53
2019-03-05T06:48:06.085Z,2.93
2019-03-05T06:53:13.006Z,3.60
2019-03-05T06:58:19.986Z,1.83
2019-03-05T07:03:27.113Z,3.00
2019-03-05T07:08:34.710Z,3.23
2019-03-05T07:13:42.021Z,4.33
2019-03-05T07:19:10.166Z,4.60
2019-03-05T07:24:41.523Z,2.70
2019-03-05T07:29:48.547Z,2.37
2019-03-05T07:34:56.437Z,2.70
2019-03-05T07:40:10.361Z,3.13
2019-03-05T07:45:17.316Z,2.27
2019-03-05T07:50:24.405Z,2.47
2019-03-05T07:55:31.354Z,3.93
2019-03-05T08:00:39.603Z,5.93
2019-03-05T08:05:47.626Z,5.87
2019-03-05T08:10:54.698Z,2.50
2019-03-05T08:16:13.983Z,3.57
2019-03-05T08:21:20.854Z,5.93
2019-03-05T08:26:28.841Z,2.67
2019-03-05T08:31:35.803Z,3.43
2019-03-05T08:36:42.740Z,4.97
2019-03-05T08:41:49.716Z,4.47
2019-03-05T08:46:56.725Z,3.17
2019-03-05T08:52:03.914Z,4.33
2019-03-05T08:57:11.335Z,5.00
2019-03-05T09:02:18.247Z,2.87
2019-03-05T09:07:26.133Z,8.60
2019-03-05T09:12:33.350Z,5.90
2019-03-05T09:17:40.335Z,5.47
2019-03-05T09:22:47.637Z,2.27
2019-03-05T09:27:55.360Z,4.50
2019-03-05T09:33:02.418Z,3.60
2019-03-05T09:38:09.447Z,5.50
2019-03-05T09:43:16.361Z,4.97
2019-03-05T09:48:23.364Z,2.60
2019-03-05T09:53:30.580Z,6.97
2019-03-05T09:58:37.572Z,6.07
2019-03-05T10:03:44.609Z,6.37
2019-03-05T10:08:51.651Z,3.60
2019-03-05T10:13:58.617Z,5.97
2019-03-05T10:19:05.806Z,3.47
2019-03-05T10:24:12.999Z,2.63
2019-03-05T10:29:20.002Z,2.70
2019-03-05T10:34:27.102Z,4.90
2019-03-05T10:39:34.100Z,3.40
2019-03-05T10:44:41.017Z,4.33
2019-03-05T10:49:47.940Z,2.37
2019-03-05T10:54:54.949Z,2.27
2019-03-05T11:00:01.951Z,1.97
2019-03-05T11:05:11.887Z,2.43
2019-03-05T11:10:20.041Z,1.90
2019-03-05T11:15:27.483Z,2.07
2019-03-05T11:20:34.809Z,2.00
2019-03-05T11:25:41.872Z,2.00
2019-03-05T11:30:48.794Z,2.20
2019-03-05T11:35:55.799Z,2.70
2019-03-05T11:41:03.571Z,2.70
2019-03-05T11:46:17.266Z,3.03
2019-03-05T11:51:24.324Z,1.70
2019-03-05T11:56:31.574Z,2.93
2019-03-05T12:01:47.380Z,4.80
2019-03-05T12:06:54.299Z,4.57
2019-03-05T12:12:01.362Z,2.33
2019-03-05T12:17:08.305Z,1.90
2019-03-05T12:22:15.222Z,4.10
2019-03-05T12:27:22.142Z,2.20
2019-03-05T12:32:29.078Z,2.40
2019-03-05T12:37:36.034Z,3.93
2019-03-05T12:42:45.476Z,2.40
2019-03-05T12:47:54.335Z,1.83
2019-03-05T12:53:01.396Z,2.93
2019-03-05T12:58:08.722Z,5.33
2019-03-05T13:03:15.820Z,2.70
2019-03-05T13:08:22.878Z,3.70
2019-03-05T13:13:29.850Z,3.03
2019-03-05T13:18:36.784Z,4.33
2019-03-05T13:23:44.981Z,1.70
2019-03-05T13:28:51.926Z,1.10
2019-03-05T13:33:58.943Z,1.43
2019-03-05T13:39:06.794Z,1.23
2019-03-05T13:44:32.074Z,1.20
2019-03-05T13:50:08.844Z,1.40
2019-03-05T13:55:29.112Z,1.27
2019-03-05T14:00:36.493Z,1.27
2019-03-05T14:06:27.919Z,1.40
2019-03-05T14:11:35.927Z,1.80
2019-03-05T14:16:42.882Z,1.70
2019-03-05T14:21:49.846Z,2.87
2019-03-05T14:26:57.084Z,2.03
2019-03-05T14:32:04.117Z,1.97
2019-03-05T14:37:12.665Z,1.27
2019-03-05T14:42:21.192Z,1.53
2019-03-05T14:47:28.469Z,1.77
2019-03-05T14:52:36.438Z,1.10
2019-03-05T14:57:43.499Z,1.73
2019-03-05T15:02:50.545Z,1.50
2019-03-05T15:07:57.595Z,2.17
2019-03-05T15:13:15.181Z,1.40
2019-03-05T15:18:14.126Z,1.80
2019-03-05T15:23:21.057Z,1.50
2019-03-05T15:28:28.007Z,1.60
2019-03-05T15:33:34.933Z,2.27
2019-03-05T15:38:41.811Z,2.30
2019-03-05T15:43:48.957Z,2.10
2019-03-05T15:48:56.323Z,3.17
2019-03-05T15:54:03.483Z,2.97
2019-03-05T15:59:10.706Z,2.63
2019-03-05T16:04:17.864Z,2.40
2019-03-05T16:09:24.999Z,3.03
2019-03-05T16:14:33.878Z,4.17
2019-03-05T16:19:40.915Z,3.23
2019-03-05T16:24:48.025Z,3.07
2019-03-05T16:29:57.158Z,3.30
2019-03-05T16:35:21.047Z,3.37
2019-03-05T16:40:51.259Z,2.80
2019-03-05T16:46:09.559Z,3.20
2019-03-05T16:51:35.702Z,6.90
2019-03-05T16:57:09.634Z,3.10
2019-03-05T17:02:28.678Z,4.20
2019-03-05T17:07:51.472Z,5.47
2019-03-05T17:12:58.774Z,3.97
2019-03-05T17:18:06.497Z,3.50
2019-03-05T17:23:13.630Z,4.73
2019-03-05T17:28:20.537Z,4.20
2019-03-05T17:33:27.592Z,4.30
2019-03-05T17:38:34.573Z,5.47
2019-03-05T17:43:42.671Z,5.07
2019-03-05T17:48:49.823Z,5.73
2019-03-05T17:53:58.225Z,5.30
2019-03-05T17:59:05.365Z,6.10
2019-03-05T18:04:13.233Z,6.80
2019-03-05T18:09:21.622Z,5.90
2019-03-05T18:14:28.680Z,8.53
2019-03-05T18:19:35.663Z,6.33
2019-03-05T18:24:42.838Z,10.53
2019-03-05T18:29:49.851Z,7.87
2019-03-05T18:34:57.233Z,8.80
2019-03-05T18:40:05.606Z,11.27
2019-03-05T18:45:18.232Z,6.87
2019-03-05T18:50:25.698Z,8.03
2019-03-05T18:55:32.757Z,7.30
2019-03-05T19:00:39.986Z,7.87
2019-03-05T19:05:47.050Z,9.37
2019-03-05T19:10:54.384Z,8.93
2019-03-05T19:16:01.564Z,6.97
2019-03-05T19:21:08.727Z,8.63
2019-03-05T19:26:15.773Z,8.77
2019-03-05T19:31:22.754Z,9.10
2019-03-05T19:36:29.675Z,9.83
2019-03-05T19:41:37.611Z,9.47
2019-03-05T19:46:44.609Z,10.03
2019-03-05T19:51:51.509Z,8.27
2019-03-05T19:56:58.443Z,9.27
2019-03-05T20:02:05.631Z,8.77
2019-03-05T20:07:14.254Z,7.93
2019-03-05T20:12:21.294Z,10.27
2019-03-05T20:17:28.312Z,7.67
2019-03-05T20:22:35.730Z,8.40
2019-03-05T20:27:42.821Z,12.50
2019-03-05T20:32:50.266Z,7.43
2019-03-05T20:37:57.295Z,6.90
2019-03-05T20:43:04.767Z,8.47
2019-03-05T20:48:11.989Z,7.10
2019-03-05T20:53:20.129Z,8.00
2019-03-05T20:58:27.168Z,7.17
2019-03-05T21:03:34.366Z,6.30
2019-03-05T21:08:41.514Z,7.23
2019-03-05T21:13:48.622Z,6.63
2019-03-05T21:18:55.528Z,6.13
2019-03-05T21:24:02.499Z,7.10
2019-03-05T21:29:09.547Z,5.90
2019-03-05T21:34:16.464Z,8.20
2019-03-05T21:39:24.274Z,7.13
2019-03-05T21:44:31.467Z,6.57
2019-03-05T21:49:38.396Z,5.63
2019-03-05T21:54:45.399Z,6.20
2019-03-05T21:59:52.339Z,6.00
2019-03-05T22:04:59.419Z,6.40
2019-03-05T22:10:07.501Z,5.50
2019-03-05T22:15:16.431Z,5.83
2019-03-05T22:20:24.003Z,8.17
2019-03-05T22:25:31.086Z,5.40
2019-03-05T22:30:38.629Z,5.17
2019-03-05T22:35:45.918Z,4.73
2019-03-05T22:40:53.286Z,6.87
2019-03-05T22:46:00.215Z,10.03
2019-03-05T22:51:07.212Z,5.87
2019-03-05T22:56:14.215Z,5.33
2019-03-05T23:01:34.798Z,7.40
2019-03-05T23:06:42.789Z,5.77
2019-03-05T23:11:50.042Z,7.13
2019-03-05T23:16:57.048Z,8.10
2019-03-05T23:22:04.302Z,5.87
2019-03-05T23:27:12.828Z,6.53
2019-03-05T23:32:19.792Z,6.73
2019-03-05T23:37:26.795Z,6.60
2019-03-05T23:42:33.717Z,5.87
2019-03-05T23:47:40.723Z,9.90
2019-03-05T23:52:49.451Z,7.43
2019-03-05T23:57:56.750Z,8.00
